Terminal Aerodrome Forecast
Issued by NWS Flagstaff, AZ

Home | Current Version | Previous Version | Text Only | Print | Product List | Glossary On
Versions: 1 2 3 4 5 6 7 8 9 10 11 12 13 14 15 16 17 18
000
FTUS45 KFGZ 312009 AAA
TAFFLG
TAF AMD
KFLG 312009Z 3120/0118 22012KT P6SM VCTS SCT060CB BKN100
      TEMPO 3120/3124 VRB15G25KT 4SM TSRA OVC040CB
     FM010300 VRB05KT P6SM SCT050 BKN120=

USA.gov is the U.S. government's official web portal to all federal, state and local government web resources and services.